Time;durP1;ratioP1;P1;durP2;ratioP2;P2;SDS_P1;SDS_P2;PMS_P1;PMS_P2;Temp;Humidity;BMP_temperature;BMP_pressure;BME280_temperature;BME280_humidity;BME280_pressure;Samples;Min_cycle;Max_cycle;Signal;HPM_P1;HPM_P2
2024/03/13 00:01:11;;;;;;;3.90;2.90;;;;;;;6.10;100.00;96237.35;109102;1266;22508;-74
2024/03/13 00:03:51;;;;;;;4.50;3.40;;;;;;;6.09;100.00;96237.14;109106;1272;22560;-74
2024/03/13 00:06:22;;;;;;;4.20;3.10;;;;;;;6.05;100.00;96238.27;109148;1272;24108;-74
2024/03/13 00:08:56;;;;;;;4.70;3.70;;;;;;;6.02;100.00;96238.89;109122;1273;22588;-74
2024/03/13 00:11:32;;;;;;;5.50;3.60;;;;;;;6.00;100.00;96237.84;109135;1273;22905;-74
2024/03/13 00:14:06;;;;;;;4.60;3.90;;;;;;;5.98;100.00;96241.52;109132;1271;23001;-73
2024/03/13 00:16:41;;;;;;;4.70;3.30;;;;;;;6.02;100.00;96243.89;109146;1273;22660;-74
2024/03/13 00:19:15;;;;;;;4.90;3.60;;;;;;;6.05;100.00;96239.85;109156;1262;25113;-74
2024/03/13 00:21:46;;;;;;;4.30;3.30;;;;;;;6.06;100.00;96249.51;109118;1272;22552;-74
2024/03/13 00:24:17;;;;;;;3.90;2.90;;;;;;;6.05;100.00;96242.63;109107;1272;22950;-74
2024/03/13 00:26:51;;;;;;;5.50;3.80;;;;;;;6.01;100.00;96242.95;109086;1266;22575;-74
2024/03/13 00:29:25;;;;;;;5.50;3.80;;;;;;;5.97;100.00;96246.52;109120;1273;22465;-74
2024/03/13 00:31:59;;;;;;;4.70;3.40;;;;;;;5.95;100.00;96241.46;109126;1266;22530;-74
2024/03/13 00:34:31;;;;;;;4.20;2.50;;;;;;;5.94;100.00;96245.61;109122;1273;22539;-74
2024/03/13 00:37:02;;;;;;;5.80;3.50;;;;;;;5.95;100.00;96246.45;109090;1266;22537;-74
2024/03/13 00:39:33;;;;;;;5.50;3.10;;;;;;;5.92;100.00;96250.81;109138;1269;22517;-74
2024/03/13 00:42:05;;;;;;;5.90;3.30;;;;;;;5.89;100.00;96251.71;109097;1266;22526;-74
2024/03/13 00:44:44;;;;;;;4.50;3.20;;;;;;;5.86;100.00;96250.64;109113;1273;22509;-74
2024/03/13 00:47:16;;;;;;;4.80;3.10;;;;;;;5.84;100.00;96255.16;109117;1269;25455;-74
2024/03/13 00:49:52;;;;;;;4.40;3.30;;;;;;;5.87;100.00;96253.58;109108;1269;22510;-74
2024/03/13 00:52:27;;;;;;;6.20;3.70;;;;;;;5.87;100.00;96255.48;109071;1272;22521;-74
2024/03/13 00:55:00;;;;;;;4.70;3.10;;;;;;;5.84;100.00;96250.33;109121;1273;25407;-74
2024/03/13 00:57:35;;;;;;;5.00;3.50;;;;;;;5.81;100.00;96251.16;109164;1270;22545;-74
2024/03/13 01:00:18;;;;;;;5.20;3.80;;;;;;;5.77;100.00;96249.29;109112;1272;25533;-74
2024/03/13 01:02:49;;;;;;;5.90;3.80;;;;;;;5.75;100.00;96246.85;109108;1273;25917;-74
2024/03/13 01:05:22;;;;;;;5.50;3.30;;;;;;;5.71;100.00;96247.57;109128;1272;22575;-74
2024/03/13 01:07:55;;;;;;;5.60;3.80;;;;;;;5.69;100.00;96248.89;109137;1273;22537;-74
2024/03/13 01:10:27;;;;;;;5.40;3.60;;;;;;;5.70;100.00;96250.67;109197;1272;22519;-74
2024/03/13 01:12:59;;;;;;;4.70;3.30;;;;;;;5.70;100.00;96250.77;109128;1269;22582;-74
2024/03/13 01:15:32;;;;;;;4.80;3.10;;;;;;;5.72;100.00;96249.27;109123;1269;22540;-74
2024/03/13 01:18:10;;;;;;;3.70;2.70;;;;;;;5.73;100.00;96255.89;109110;1269;25484;-74
2024/03/13 01:20:42;;;;;;;5.50;3.00;;;;;;;5.74;100.00;96250.84;109159;1272;22517;-74
2024/03/13 01:23:13;;;;;;;6.00;3.10;;;;;;;5.72;100.00;96259.04;109114;1272;22504;-74
2024/03/13 01:25:57;;;;;;;3.90;2.50;;;;;;;5.72;100.00;96258.15;109128;1269;23250;-74
2024/03/13 01:28:30;;;;;;;3.40;2.30;;;;;;;5.75;100.00;96249.59;109099;1273;25414;-74
2024/03/13 01:31:07;;;;;;;2.50;1.90;;;;;;;5.70;100.00;96255.88;109129;1273;22560;-74
2024/03/13 01:33:39;;;;;;;2.80;1.90;;;;;;;5.65;100.00;96255.23;109152;1251;22589;-74
2024/03/13 01:36:11;;;;;;;3.00;2.00;;;;;;;5.63;100.00;96259.26;109121;1272;22567;-74
2024/03/13 01:38:42;;;;;;;4.40;2.30;;;;;;;5.66;100.00;96259.34;109121;1262;22507;-74
2024/03/13 01:55:35;;;;;;;1.70;1.30;;;;;;;5.59;100.00;96251.88;109110;1268;22514;-74
2024/03/13 01:58:09;;;;;;;2.40;1.60;;;;;;;5.61;100.00;96258.41;109129;1269;22520;-74
2024/03/13 02:03:29;;;;;;;1.70;1.20;;;;;;;5.63;100.00;96262.58;109116;1272;24215;-74
2024/03/13 02:06:03;;;;;;;3.40;1.40;;;;;;;5.62;100.00;96263.77;109127;1273;23743;-74
2024/03/13 02:08:35;;;;;;;2.40;1.50;;;;;;;5.59;100.00;96262.02;109194;1265;22592;-74
2024/03/13 02:11:11;;;;;;;1.80;1.20;;;;;;;5.60;100.00;96269.65;109087;1272;22609;-74
2024/03/13 02:13:46;;;;;;;3.00;1.70;;;;;;;5.62;100.00;96264.55;109079;1266;24216;-74
2024/03/13 02:16:18;;;;;;;1.70;1.20;;;;;;;5.61;100.00;96272.91;109125;1272;22504;-75
2024/03/13 02:18:56;;;;;;;2.20;1.40;;;;;;;5.64;100.00;96271.09;109147;1266;23232;-74
2024/03/13 02:21:32;;;;;;;1.50;0.90;;;;;;;5.69;100.00;96264.35;109161;1272;22626;-74
2024/03/13 02:24:05;;;;;;;1.80;1.10;;;;;;;5.72;100.00;96270.88;109185;1272;22567;-74
2024/03/13 02:26:34;;;;;;;2.30;1.20;;;;;;;5.77;100.00;96268.85;109044;1273;23031;-74
2024/03/13 02:29:05;;;;;;;1.90;1.20;;;;;;;5.82;100.00;96266.42;109081;1273;22532;-74
2024/03/13 02:31:33;;;;;;;2.50;1.40;;;;;;;5.78;100.00;96268.39;109032;1273;22523;-74
2024/03/13 02:34:03;;;;;;;2.90;1.60;;;;;;;5.76;100.00;96271.52;109016;1251;22587;-74
2024/03/13 02:36:31;;;;;;;2.40;1.50;;;;;;;5.78;100.00;96277.18;109031;1269;25223;-74
2024/03/13 02:39:01;;;;;;;2.00;1.30;;;;;;;5.81;100.00;96275.20;109041;1272;25220;-74
2024/03/13 02:41:29;;;;;;;2.40;1.70;;;;;;;5.84;100.00;96276.36;109027;1250;22525;-74
2024/03/13 02:44:06;;;;;;;1.90;1.70;;;;;;;5.80;100.00;96280.29;109031;1250;22514;-74
2024/03/13 02:46:38;;;;;;;2.40;2.00;;;;;;;5.75;100.00;96278.14;109027;1266;22708;-74
2024/03/13 02:49:07;;;;;;;2.80;1.90;;;;;;;5.73;100.00;96281.61;109035;1272;22555;-74
2024/03/13 02:51:35;;;;;;;3.40;2.00;;;;;;;5.72;100.00;96279.04;109019;1272;22482;-75
2024/03/13 02:54:04;;;;;;;2.30;1.60;;;;;;;5.75;100.00;96271.36;109020;1273;24059;-74
2024/03/13 02:56:32;;;;;;;3.50;1.70;;;;;;;5.68;100.00;96270.92;109032;1267;22534;-74
2024/03/13 02:59:00;;;;;;;3.60;2.30;;;;;;;5.66;100.00;96274.59;109035;1272;22532;-74
2024/03/13 03:01:28;;;;;;;4.30;2.60;;;;;;;5.67;100.00;96275.48;109011;1273;22899;-75
2024/03/13 03:03:59;;;;;;;2.70;2.10;;;;;;;5.68;100.00;96268.82;109021;1273;22523;-74
2024/03/13 03:06:27;;;;;;;2.50;1.70;;;;;;;5.70;100.00;96277.45;109079;1272;22512;-74
2024/03/13 03:08:58;;;;;;;3.50;2.00;;;;;;;5.73;100.00;96281.04;109046;1272;22515;-75
2024/03/13 03:11:28;;;;;;;2.60;2.20;;;;;;;5.76;100.00;96284.73;109052;1272;22638;-74
2024/03/13 03:13:57;;;;;;;2.60;1.90;;;;;;;5.74;100.00;96287.56;109067;1273;22470;-74
2024/03/13 03:16:25;;;;;;;1.80;1.40;;;;;;;5.72;100.00;96283.55;109085;1269;22554;-74
2024/03/13 03:18:54;;;;;;;3.90;1.90;;;;;;;5.69;100.00;96282.55;109012;1268;22507;-74
2024/03/13 03:21:22;;;;;;;3.10;1.80;;;;;;;5.62;100.00;96287.08;109051;1273;22454;-74
2024/03/13 03:23:51;;;;;;;2.40;1.80;;;;;;;5.61;100.00;96283.54;109050;1273;22469;-74
2024/03/13 03:26:27;;;;;;;3.10;1.70;;;;;;;5.62;100.00;96285.59;109033;1272;24577;-74
2024/03/13 03:28:58;;;;;;;2.20;1.50;;;;;;;5.61;100.00;96285.42;109012;1266;22614;-74
2024/03/13 03:31:29;;;;;;;3.90;1.70;;;;;;;5.58;100.00;96286.20;109030;1273;23699;-74
2024/03/13 03:33:59;;;;;;;2.20;1.50;;;;;;;5.56;100.00;96289.41;109013;1273;22536;-74
2024/03/13 03:36:27;;;;;;;2.20;1.70;;;;;;;5.55;100.00;96286.89;109048;1273;22451;-74
2024/03/13 03:38:58;;;;;;;2.60;1.30;;;;;;;5.49;100.00;96287.53;109024;1273;22511;-74
2024/03/13 03:41:27;;;;;;;2.10;1.30;;;;;;;5.44;100.00;96288.85;109039;1273;22511;-74
2024/03/13 03:43:59;;;;;;;2.80;1.20;;;;;;;5.45;100.00;96288.91;109028;1273;22509;-74
2024/03/13 03:46:27;;;;;;;1.60;1.30;;;;;;;5.45;100.00;96292.27;109055;1273;22556;-74
2024/03/13 03:48:56;;;;;;;3.10;1.50;;;;;;;5.44;100.00;96295.38;109055;1273;22641;-74
2024/03/13 03:51:26;;;;;;;1.80;1.20;;;;;;;5.44;100.00;96290.70;109032;1272;22581;-74
2024/03/13 03:53:54;;;;;;;1.80;1.30;;;;;;;5.43;100.00;96291.48;109033;1272;29377;-74
2024/03/13 03:56:22;;;;;;;2.60;1.70;;;;;;;5.38;100.00;96292.19;109029;1269;22519;-74
2024/03/13 03:58:51;;;;;;;2.70;1.60;;;;;;;5.36;100.00;96296.06;109029;1272;22517;-74
2024/03/13 04:01:22;;;;;;;3.00;1.70;;;;;;;5.42;100.00;96295.46;109024;1272;22518;-74
2024/03/13 04:03:50;;;;;;;2.00;1.40;;;;;;;5.45;100.00;96293.48;109025;1272;22547;-74
2024/03/13 04:06:21;;;;;;;2.00;1.40;;;;;;;5.48;100.00;96294.08;109041;1272;22524;-74
2024/03/13 04:08:51;;;;;;;2.20;1.80;;;;;;;5.48;100.00;96296.70;109026;1272;22580;-74
2024/03/13 04:11:21;;;;;;;2.80;1.90;;;;;;;5.43;100.00;96288.27;109011;1269;22470;-74
2024/03/13 04:13:49;;;;;;;2.50;2.00;;;;;;;5.35;100.00;96304.62;109001;1272;22540;-74
2024/03/13 04:16:17;;;;;;;2.30;1.80;;;;;;;5.34;100.00;96299.99;109012;1269;22527;-74
2024/03/13 04:18:46;;;;;;;1.50;1.40;;;;;;;5.36;100.00;96302.64;109047;1273;22579;-74
2024/03/13 04:21:14;;;;;;;3.20;1.80;;;;;;;5.38;100.00;96304.60;109058;1273;25441;-74
2024/03/13 04:23:46;;;;;;;2.60;2.20;;;;;;;5.41;100.00;96303.52;109034;1273;25203;-74
2024/03/13 04:26:15;;;;;;;1.70;1.60;;;;;;;5.45;100.00;96307.89;109060;1272;24948;-74
2024/03/13 04:28:44;;;;;;;2.40;2.00;;;;;;;5.50;100.00;96310.57;109049;1273;22511;-74
2024/03/13 04:31:13;;;;;;;2.60;1.80;;;;;;;5.54;100.00;96310.86;108997;1273;24166;-74
2024/03/13 04:33:44;;;;;;;;;;;;;;;5.57;100.00;96313.60;109042;1270;22496;-74
2024/03/13 04:36:13;;;;;;;;;;;;;;;5.60;100.00;96323.66;109100;1269;22496;-74
2024/03/13 04:38:41;;;;;;;2.30;2.10;;;;;;;5.60;100.00;96321.35;109095;1272;25402;-74
2024/03/13 04:41:11;;;;;;;2.10;1.80;;;;;;;5.52;100.00;96329.05;109034;1266;22545;-74
2024/03/13 04:43:39;;;;;;;2.90;2.10;;;;;;;5.51;100.00;96325.73;109024;1272;22518;-74
2024/03/13 04:46:07;;;;;;;2.60;2.00;;;;;;;5.48;100.00;96329.30;109026;1266;22649;-74
2024/03/13 04:48:36;;;;;;;2.80;2.10;;;;;;;5.49;100.00;96327.27;108992;1272;22539;-74
2024/03/13 04:51:04;;;;;;;2.50;1.30;;;;;;;5.48;100.00;96330.20;109018;1272;25393;-74
2024/03/13 04:53:33;;;;;;;1.40;1.30;;;;;;;5.42;100.00;96338.21;109031;1272;22579;-74
2024/03/13 04:56:05;;;;;;;2.40;1.40;;;;;;;5.45;100.00;96336.55;109039;1272;22878;-74
2024/03/13 04:58:40;;;;;;;1.90;1.70;;;;;;;5.47;100.00;96340.02;109029;1273;22510;-74
2024/03/13 05:01:09;;;;;;;2.20;1.70;;;;;;;5.46;100.00;96340.75;109033;1272;22512;-74
2024/03/13 05:03:37;;;;;;;1.20;1.10;;;;;;;5.41;100.00;96342.89;109044;1272;22764;-74
2024/03/13 05:06:06;;;;;;;2.10;1.60;;;;;;;5.38;100.00;96344.77;109053;1272;22531;-75
2024/03/13 05:08:34;;;;;;;2.30;1.40;;;;;;;5.38;100.00;96343.55;109014;1273;22925;-74
2024/03/13 05:11:06;;;;;;;1.40;1.20;;;;;;;5.40;100.00;96341.94;109014;1273;22782;-74
2024/03/13 05:13:34;;;;;;;2.60;1.80;;;;;;;5.42;100.00;96344.31;109040;1272;24502;-74
2024/03/13 05:16:09;;;;;;;3.30;2.50;;;;;;;5.46;100.00;96347.22;109023;1269;22534;-74
2024/03/13 05:18:38;;;;;;;2.90;2.10;;;;;;;5.49;100.00;96351.08;109012;1273;22610;-74
2024/03/13 05:21:06;;;;;;;4.30;2.00;;;;;;;5.54;100.00;96345.88;108987;1274;22548;-74
2024/03/13 05:23:34;;;;;;;2.90;1.70;;;;;;;5.59;100.00;96352.95;108994;1274;22515;-74
2024/03/13 05:26:02;;;;;;;2.40;1.60;;;;;;;5.62;100.00;96351.98;109016;1272;25414;-74
2024/03/13 05:28:31;;;;;;;2.10;1.80;;;;;;;5.64;100.00;96355.01;109009;1272;22508;-74
2024/03/13 05:31:00;;;;;;;2.70;1.80;;;;;;;5.67;100.00;96355.55;109018;1273;22670;-75
2024/03/13 05:33:28;;;;;;;2.20;1.90;;;;;;;5.71;100.00;96353.92;108952;1273;22521;-74
2024/03/13 05:35:56;;;;;;;2.80;1.90;;;;;;;5.68;100.00;96358.27;109001;1273;23887;-74
2024/03/13 05:38:25;;;;;;;1.70;1.50;;;;;;;5.65;100.00;96358.00;109018;1273;22828;-74
2024/03/13 05:40:59;;;;;;;2.30;1.70;;;;;;;5.64;100.00;96363.27;109030;1272;22522;-74
2024/03/13 05:43:30;;;;;;;2.90;1.90;;;;;;;5.65;100.00;96362.84;109031;1273;22626;-74
2024/03/13 05:45:58;;;;;;;2.00;1.70;;;;;;;5.66;100.00;96368.05;109038;1272;23978;-74
2024/03/13 05:48:27;;;;;;;2.20;1.50;;;;;;;5.64;100.00;96370.83;109029;1266;22515;-74
2024/03/13 05:50:55;;;;;;;1.90;1.70;;;;;;;5.57;100.00;96372.98;109018;1272;22526;-75
2024/03/13 05:53:24;;;;;;;2.10;1.70;;;;;;;5.55;100.00;96376.01;109007;1272;22574;-74
2024/03/13 05:55:54;;;;;;;4.00;2.20;;;;;;;5.51;100.00;96374.67;109060;1272;22522;-74
2024/03/13 05:58:23;;;;;;;2.50;2.10;;;;;;;5.43;100.00;96377.86;109019;1272;22560;-74
2024/03/13 06:00:52;;;;;;;3.80;2.70;;;;;;;5.33;100.00;96376.20;109066;1272;22628;-74
2024/03/13 06:03:25;;;;;;;2.50;1.80;;;;;;;5.24;100.00;96374.04;109029;1273;23231;-74
2024/03/13 06:05:54;;;;;;;2.80;2.40;;;;;;;5.18;100.00;96377.90;109019;1269;22585;-74
2024/03/13 06:08:22;;;;;;;2.70;1.80;;;;;;;5.15;100.00;96381.04;109047;1273;22827;-74
2024/03/13 06:10:51;;;;;;;2.80;2.00;;;;;;;5.23;100.00;96382.64;109041;1267;22523;-74
2024/03/13 06:13:19;;;;;;;2.20;1.60;;;;;;;5.33;100.00;96385.45;109000;1272;24554;-74
2024/03/13 06:15:48;;;;;;;1.50;1.40;;;;;;;5.39;100.00;96383.09;109053;1270;22492;-74
2024/03/13 06:18:19;;;;;;;3.90;2.30;;;;;;;5.43;100.00;96388.53;109003;1273;22463;-74
2024/03/13 06:20:47;;;;;;;2.40;2.10;;;;;;;5.36;100.00;96387.74;109033;1273;22619;-74
2024/03/13 06:23:16;;;;;;;3.90;2.10;;;;;;;5.32;100.00;96388.59;109055;1273;22534;-74
2024/03/13 06:25:48;;;;;;;2.40;1.90;;;;;;;5.32;100.00;96393.59;109042;1266;22644;-74
2024/03/13 06:31:06;;;;;;;2.00;1.50;;;;;;;5.34;100.00;96391.78;109031;1272;24174;-74
2024/03/13 06:33:34;;;;;;;1.30;0.80;;;;;;;5.28;100.00;96391.56;109064;1272;22511;-74
2024/03/13 06:36:02;;;;;;;1.80;1.70;;;;;;;5.24;100.00;96392.95;109009;1266;22509;-74
2024/03/13 06:38:31;;;;;;;1.90;1.50;;;;;;;5.25;100.00;96395.07;109107;1272;22703;-74
2024/03/13 06:41:02;;;;;;;2.10;1.60;;;;;;;5.25;100.00;96396.90;109027;1273;22603;-74
2024/03/13 06:43:31;;;;;;;2.70;1.50;;;;;;;5.26;100.00;96398.44;109011;1273;24200;-74
2024/03/13 06:45:59;;;;;;;4.20;2.30;;;;;;;5.27;100.00;96396.87;109035;1272;22550;-74
2024/03/13 06:48:30;;;;;;;2.40;1.40;;;;;;;5.28;100.00;96399.39;109029;1272;22557;-74
2024/03/13 06:51:00;;;;;;;3.20;2.20;;;;;;;5.23;100.00;96398.94;109037;1272;22562;-74
2024/03/13 06:53:29;;;;;;;3.10;2.20;;;;;;;5.19;100.00;96404.77;109041;1272;22628;-74
2024/03/13 06:55:58;;;;;;;4.80;2.30;;;;;;;5.23;100.00;96400.52;109044;1273;22560;-74
2024/03/13 06:58:33;;;;;;;4.30;2.80;;;;;;;5.21;100.00;96401.22;109035;1273;22674;-74
2024/03/13 07:01:14;;;;;;;3.10;2.20;;;;;;;5.17;100.00;96407.02;109060;1272;25674;-74
2024/03/13 07:03:42;;;;;;;3.10;1.90;;;;;;;5.22;100.00;96413.59;109008;1273;25571;-74
2024/03/13 07:06:14;;;;;;;2.50;1.50;;;;;;;5.30;100.00;96418.23;109027;1273;22498;-75
2024/03/13 07:08:43;;;;;;;3.30;1.80;;;;;;;5.40;100.00;96422.64;109029;1272;22470;-74
2024/03/13 07:11:13;;;;;;;2.80;1.80;;;;;;;5.41;100.00;96423.65;109044;1273;22571;-75
2024/03/13 07:13:42;;;;;;;2.20;1.80;;;;;;;5.39;100.00;96426.20;109017;1272;24241;-74
2024/03/13 07:16:13;;;;;;;1.80;1.20;;;;;;;5.36;100.00;96426.23;109065;1273;25277;-74
2024/03/13 07:18:41;;;;;;;1.30;1.10;;;;;;;5.37;100.00;96428.14;109057;1269;22485;-74
2024/03/13 07:21:09;;;;;;;1.70;1.20;;;;;;;5.46;100.00;96426.25;109035;1272;24288;-74
2024/03/13 07:23:37;;;;;;;1.90;1.10;;;;;;;5.45;100.00;96427.34;109060;1272;25646;-74
2024/03/13 07:26:08;;;;;;;1.60;1.10;;;;;;;5.50;100.00;96432.98;109072;1272;22503;-74
2024/03/13 07:28:38;;;;;;;1.80;1.00;;;;;;;5.58;100.00;96431.94;109084;1254;22685;-74
2024/03/13 07:31:07;;;;;;;1.80;1.00;;;;;;;5.59;100.00;96436.63;109049;1272;22505;-74
2024/03/13 07:33:38;;;;;;;2.70;0.90;;;;;;;5.55;100.00;96437.81;109012;1272;22539;-74
2024/03/13 07:36:07;;;;;;;0.90;0.70;;;;;;;5.58;100.00;96441.19;109042;1270;22551;-75
2024/03/13 07:38:38;;;;;;;0.80;0.60;;;;;;;5.62;100.00;96445.43;109050;1272;24168;-74
2024/03/13 07:41:11;;;;;;;1.30;0.90;;;;;;;5.65;100.00;96441.21;109057;1273;22518;-74
2024/03/13 07:43:39;;;;;;;2.20;0.80;;;;;;;5.66;100.00;96435.44;109007;1267;22518;-74
2024/03/13 07:46:09;;;;;;;0.70;0.70;;;;;;;5.71;100.00;96439.35;109068;1272;22591;-74
2024/03/13 07:48:41;;;;;;;1.30;0.80;;;;;;;5.73;100.00;96441.05;109074;1272;22564;-74
2024/03/13 07:51:12;;;;;;;1.20;0.80;;;;;;;5.65;100.00;96444.78;109056;1273;22557;-74
2024/03/13 07:53:43;;;;;;;0.90;0.70;;;;;;;5.52;100.00;96442.20;109068;1273;22562;-74
2024/03/13 07:56:11;;;;;;;0.60;0.60;;;;;;;5.42;100.00;96449.20;109086;1272;22662;-74
2024/03/13 07:58:39;;;;;;;1.30;0.80;;;;;;;5.46;100.00;96447.60;109049;1268;22653;-74
2024/03/13 08:01:10;;;;;;;1.60;1.30;;;;;;;5.53;100.00;96449.89;109060;1272;22524;-74
2024/03/13 08:03:39;;;;;;;1.10;1.00;;;;;;;5.59;100.00;96454.40;109044;1273;23190;-74
2024/03/13 08:06:08;;;;;;;1.70;1.20;;;;;;;5.56;100.00;96456.54;109078;1273;22516;-74
2024/03/13 08:08:36;;;;;;;1.90;0.90;;;;;;;5.57;100.00;96456.91;109070;1251;22465;-74
2024/03/13 08:11:04;;;;;;;1.00;0.80;;;;;;;5.57;100.00;96457.53;109076;1272;22623;-74
2024/03/13 08:13:33;;;;;;;1.40;0.90;;;;;;;5.53;100.00;96459.77;109012;1273;22521;-74
2024/03/13 08:16:05;;;;;;;1.20;1.00;;;;;;;5.53;100.00;96463.71;109054;1273;22569;-74
2024/03/13 08:18:36;;;;;;;1.20;0.90;;;;;;;5.57;100.00;96461.70;109026;1273;22528;-74
2024/03/13 08:21:04;;;;;;;1.10;0.90;;;;;;;5.61;100.00;96460.72;109082;1270;24209;-74
2024/03/13 08:23:33;;;;;;;1.00;0.90;;;;;;;5.62;100.00;96460.73;109068;1272;22557;-74
2024/03/13 08:26:04;;;;;;;1.30;0.80;;;;;;;5.58;100.00;96464.44;109063;1270;22512;-74
2024/03/13 08:28:34;;;;;;;1.00;0.80;;;;;;;5.64;100.00;96463.71;109042;1272;22558;-74
2024/03/13 08:31:05;;;;;;;2.40;1.30;;;;;;;5.67;100.00;96464.41;109058;1267;25991;-75
2024/03/13 08:33:33;;;;;;;2.70;2.00;;;;;;;5.73;100.00;96468.34;108993;1266;22523;-74
2024/03/13 08:36:02;;;;;;;2.30;1.80;;;;;;;5.76;100.00;96471.80;109038;1249;22547;-74
2024/03/13 08:38:32;;;;;;;3.30;2.00;;;;;;;5.80;100.00;96473.47;109170;1272;22541;-74
2024/03/13 08:41:03;;;;;;;1.30;1.00;;;;;;;5.83;100.00;96477.02;109010;1272;22521;-75
2024/03/13 08:43:31;;;;;;;1.40;0.70;;;;;;;5.84;100.00;96474.34;109071;1272;22534;-74
2024/03/13 08:46:00;;;;;;;1.50;0.90;;;;;;;5.83;100.00;96476.70;109066;1272;22693;-74
2024/03/13 08:48:29;;;;;;;1.30;0.80;;;;;;;5.80;100.00;96482.36;109055;1273;22470;-74
2024/03/13 08:50:59;;;;;;;1.60;1.00;;;;;;;5.78;100.00;96487.92;109073;1273;22480;-74
2024/03/13 08:53:28;;;;;;;2.00;0.90;;;;;;;5.78;100.00;96488.25;109074;1272;24162;-74
2024/03/13 08:56:01;;;;;;;1.70;0.80;;;;;;;5.82;100.00;96489.02;109064;1272;24225;-74
2024/03/13 08:58:30;;;;;;;0.70;0.50;;;;;;;5.82;100.00;96490.42;109062;1272;22488;-74
2024/03/13 09:01:03;;;;;;;5.30;1.10;;;;;;;5.82;100.00;96496.58;109081;1273;22519;-74
2024/03/13 09:03:31;;;;;;;2.10;0.90;;;;;;;5.82;100.00;96493.48;109031;1273;22491;-74
2024/03/13 09:06:01;;;;;;;1.00;0.90;;;;;;;5.82;100.00;96496.74;109055;1273;22519;-74
2024/03/13 09:08:33;;;;;;;1.60;0.90;;;;;;;5.85;100.00;96502.08;109040;1273;22515;-74
2024/03/13 09:11:02;;;;;;;1.30;0.80;;;;;;;5.87;100.00;96500.98;109083;1273;22553;-74
2024/03/13 09:13:32;;;;;;;1.40;0.80;;;;;;;5.86;100.00;96503.88;109096;1272;22517;-75
2024/03/13 09:16:04;;;;;;;2.60;2.30;;;;;;;5.86;100.00;96505.24;109058;1273;22511;-74
2024/03/13 09:18:32;;;;;;;3.40;2.20;;;;;;;5.86;100.00;96507.60;109091;1249;22535;-74
2024/03/13 09:21:00;;;;;;;2.20;1.90;;;;;;;5.82;100.00;96509.63;109067;1273;22511;-74
2024/03/13 09:23:30;;;;;;;2.40;2.10;;;;;;;5.77;100.00;96510.58;109084;1272;22564;-74
2024/03/13 09:25:58;;;;;;;2.40;1.80;;;;;;;5.76;100.00;96513.46;109042;1273;22564;-74
2024/03/13 09:28:35;;;;;;;2.70;1.90;;;;;;;5.72;100.00;96518.33;109102;1269;25372;-74
2024/03/13 09:31:07;;;;;;;3.60;2.30;;;;;;;5.68;100.00;96522.81;109069;1268;22873;-74
2024/03/13 09:33:40;;;;;;;3.20;2.50;;;;;;;5.66;100.00;96524.27;109052;1272;22515;-74
2024/03/13 09:36:13;;;;;;;3.00;1.90;;;;;;;5.66;100.00;96520.85;109080;1272;24305;-74
2024/03/13 09:38:44;;;;;;;2.50;1.40;;;;;;;5.64;100.00;96524.56;109086;1272;23017;-74
2024/03/13 09:41:13;;;;;;;2.10;1.60;;;;;;;5.62;100.00;96530.11;109057;1272;22549;-74
2024/03/13 09:43:45;;;;;;;2.10;1.60;;;;;;;5.59;100.00;96526.77;109037;1251;22864;-74
2024/03/13 09:46:16;;;;;;;3.00;1.50;;;;;;;5.54;100.00;96527.36;109077;1272;22452;-74
2024/03/13 09:48:47;;;;;;;2.20;1.30;;;;;;;5.52;100.00;96531.76;109059;1251;22584;-74
2024/03/13 09:51:16;;;;;;;3.30;1.80;;;;;;;5.50;100.00;96529.80;109067;1272;22593;-74
2024/03/13 09:53:46;;;;;;;2.90;1.70;;;;;;;5.49;100.00;96530.39;109039;1270;22527;-74
2024/03/13 09:56:15;;;;;;;1.70;1.30;;;;;;;5.48;100.00;96532.16;109081;1267;22553;-74
2024/03/13 09:58:45;;;;;;;2.10;1.20;;;;;;;5.50;100.00;96533.36;109135;1269;22509;-74
2024/03/13 10:01:16;;;;;;;2.50;1.50;;;;;;;5.50;100.00;96532.79;109086;1273;23552;-74
2024/03/13 10:03:45;;;;;;;3.00;1.90;;;;;;;5.47;100.00;96533.89;109046;1272;22660;-74
2024/03/13 10:06:16;;;;;;;5.20;2.00;;;;;;;5.39;100.00;96534.56;109086;1258;22754;-75
2024/03/13 10:08:44;;;;;;;2.70;1.40;;;;;;;5.32;100.00;96534.22;109052;1256;22544;-74
2024/03/13 10:11:14;;;;;;;3.00;1.90;;;;;;;5.22;100.00;96539.73;109052;1272;22551;-74
2024/03/13 10:13:43;;;;;;;6.80;5.40;;;;;;;5.11;100.00;96542.64;109055;1272;22542;-74
2024/03/13 10:16:16;;;;;;;2.80;2.20;;;;;;;5.01;100.00;96543.52;109065;1272;22530;-74
2024/03/13 10:18:48;;;;;;;2.40;1.60;;;;;;;4.89;100.00;96545.42;109097;1272;22523;-74
2024/03/13 10:21:16;;;;;;;2.40;1.70;;;;;;;4.81;100.00;96544.64;109102;1273;23072;-74
2024/03/13 10:23:44;;;;;;;6.20;5.30;;;;;;;4.75;100.00;96546.17;109083;1271;22845;-74
2024/03/13 10:26:13;;;;;;;5.60;5.00;;;;;;;4.72;100.00;96544.73;109044;1273;22527;-74
2024/03/13 10:28:41;;;;;;;13.60;12.30;;;;;;;4.69;100.00;96540.91;109066;1273;22515;-74
2024/03/13 10:31:14;;;;;;;3.50;3.20;;;;;;;4.72;100.00;96544.52;109034;1273;24333;-74
2024/03/13 10:33:42;;;;;;;2.30;1.80;;;;;;;4.73;100.00;96544.36;109094;1272;24221;-74
2024/03/13 10:36:11;;;;;;;1.70;1.40;;;;;;;4.68;100.00;96547.47;109073;1272;22644;-74
2024/03/13 10:38:41;;;;;;;2.10;1.20;;;;;;;4.63;100.00;96552.57;109057;1270;24225;-74
2024/03/13 10:41:09;;;;;;;1.60;1.20;;;;;;;4.60;100.00;96553.01;109047;1270;23479;-74
2024/03/13 10:43:39;;;;;;;2.20;1.60;;;;;;;4.57;100.00;96552.77;109021;1270;23861;-74
2024/03/13 10:46:08;;;;;;;1.90;1.30;;;;;;;4.56;100.00;96554.16;109054;1267;22582;-74
2024/03/13 10:48:37;;;;;;;2.10;1.30;;;;;;;4.55;100.00;96554.73;109097;1273;22522;-74
2024/03/13 10:51:05;;;;;;;2.80;1.50;;;;;;;4.51;100.00;96555.66;109030;1272;22478;-74
2024/03/13 10:53:34;;;;;;;2.40;1.80;;;;;;;4.50;100.00;96558.59;109025;1270;25248;-74
2024/03/13 10:56:03;;;;;;;2.70;1.80;;;;;;;4.54;100.00;96557.50;109080;1272;24270;-75
2024/03/13 10:58:33;;;;;;;;;;;;;;;4.56;100.00;96556.16;109077;1272;22529;-74
2024/03/13 11:01:04;;;;;;;3.00;2.30;;;;;;;4.54;100.00;96560.13;109099;1267;22641;-74
2024/03/13 11:03:33;;;;;;;3.50;2.60;;;;;;;4.51;100.00;96562.40;109075;1272;22578;-74
2024/03/13 11:06:02;;;;;;;3.90;2.30;;;;;;;4.54;100.00;96561.65;109092;1272;22472;-75
2024/03/13 11:08:31;;;;;;;2.90;2.30;;;;;;;4.63;100.00;96561.56;109106;1272;25477;-74
2024/03/13 11:10:59;;;;;;;5.20;3.00;;;;;;;4.64;100.00;96559.59;109048;1270;22585;-74
2024/03/13 11:13:31;;;;;;;3.20;2.20;;;;;;;4.68;100.00;96559.07;109048;1272;22527;-74
2024/03/13 11:15:59;;;;;;;5.10;2.70;;;;;;;4.77;100.00;96556.81;109056;1269;22522;-74
2024/03/13 11:18:28;;;;;;;3.90;2.50;;;;;;;4.80;100.00;96552.83;109127;1264;22467;-74
2024/03/13 11:20:57;;;;;;;6.40;3.80;;;;;;;4.82;100.00;96551.64;109052;1272;22526;-74
2024/03/13 11:23:29;;;;;;;6.20;3.60;;;;;;;4.85;100.00;96550.26;109091;1273;25383;-74
2024/03/13 11:25:57;;;;;;;9.10;5.40;;;;;;;4.83;100.00;96551.33;108958;1270;187945;-74
2024/03/13 11:28:26;;;;;;;4.20;3.00;;;;;;;4.83;100.00;96549.76;109106;1273;23930;-74
2024/03/13 11:30:57;;;;;;;3.90;2.00;;;;;;;4.84;100.00;96552.30;109067;1272;22511;-74
2024/03/13 11:33:26;;;;;;;2.20;1.40;;;;;;;4.85;100.00;96551.52;109106;1273;22645;-74
2024/03/13 11:35:55;;;;;;;2.40;2.10;;;;;;;4.88;100.00;96548.34;109051;1272;22757;-74
2024/03/13 11:38:23;;;;;;;2.40;2.20;;;;;;;4.89;100.00;96551.20;109091;1273;22521;-74
2024/03/13 11:40:54;;;;;;;2.90;2.20;;;;;;;4.92;100.00;96546.83;109063;1272;22735;-74
2024/03/13 11:43:25;;;;;;;3.30;1.90;;;;;;;4.95;100.00;96549.23;109096;1273;22531;-74
2024/03/13 11:45:54;;;;;;;3.70;2.20;;;;;;;4.93;100.00;96549.36;109024;1269;23972;-74
2024/03/13 11:48:26;;;;;;;3.20;2.80;;;;;;;4.89;100.00;96545.20;109014;1273;22493;-74
2024/03/13 11:51:10;;;;;;;3.20;2.60;;;;;;;4.89;100.00;96543.16;109054;1273;22613;-74
2024/03/13 11:53:42;;;;;;;3.50;2.70;;;;;;;4.90;100.00;96545.21;109094;1272;22522;-74
2024/03/13 11:56:13;;;;;;;2.70;2.20;;;;;;;4.91;100.00;96546.44;109106;1271;22493;-74
2024/03/13 11:58:44;;;;;;;4.00;2.90;;;;;;;4.91;100.00;96543.77;109079;1273;22589;-74
2024/03/13 12:01:17;;;;;;;3.70;2.60;;;;;;;4.94;100.00;96546.06;109109;1272;22565;-74